Circleville, WV

10:16 AM EST on February 27, 2017 (GMT -0500)
| | Change Station

Elev -9999 ft 0.00 °N, 0.00 °E | Updated 0 second ago

Overcast
Overcast
°F
Feels Like °F
N
Wind Variable Wind from North
Gusts mph

Today
High -- | Low -- °F
--% Chance of Precip.
Yesterday
High -- | Low -- °F
Precip. -- in
Pressure 30.43 in
Visibility 10.0 miles
Clouds Few 2700 ft
Mostly Cloudy 4000 ft
Overcast 4700 ft
Dew Point Not available.
Humidity Not available.
Rainfall --
Snow Depth Not available.
6:52 AM 6:08 PM
New Moon, 1% visible
METAR KEKN 271451Z AUTO 18006KT 10SM -RA FEW027 BKN040 OVC047 05/M01 A3035 RMK AO2 RAB43 SLP302 P0000 60000 T00501006 50012
Pressure 30.43 in
Visibility 10.0 miles
Clouds Few 2700 ft
Mostly Cloudy 4000 ft
Overcast 4700 ft
Dew Point Not available.
Humidity Not available.
Rainfall --
Snow Depth Not available.
6:52 AM 6:08 PM
New Moon, 1% visible
METAR KEKN 271451Z AUTO 18006KT 10SM -RA FEW027 BKN040 OVC047 05/M01 A3035 RMK AO2 RAB43 SLP302 P0000 60000 T00501006 50012

Get Your Daily Forecast Email!

Thanks for signing up!

Be on the lookout for a verification email in your inbox.

You'll start receiving the daily forecast at 8 AM.

×

10-Day Weather Forecast

Almanac

Astronomy

Feb. 27, 2017 Rise Set
Actual Time
Civil Twilight
Nautical Twilight
Astronomical Twilight
Moon
Length of Visible Light
Length of Day
Tomorrow will be .
, % of the Moon is Illuminated

Today's Extremes

State Highs State Lows

Community

WunderPhotos

Upload Photos

1,962,540 photos uploaded!

WunderBlog® & News

Nearby

Air Quality

  Air Quality AQ Index Pollutant
Not available.

Snow Depth

Station Depth Elevation

Earthquake Activity

City Distance Mag. Time & Date
Minimum magnitude displayed is 2.5.

Coastal Water Temperatures

Place Temperature

Stations

Nearby Weather Stations

Station Location Temp. Windchill Dew Point Humidity Wind Precip. Elev Updated Type
                   

Watches & Warnings

There are currently no watches in effect.